sensor_id;sensor_type;location;lat;lon;timestamp;P1;durP1;ratioP1;P2;durP2;ratioP2
801;SDS011;383;48.766;9.270;2024-02-16T00:02:22;9.73;;;4.22;;
801;SDS011;383;48.766;9.270;2024-02-16T00:04:49;10.48;;;4.55;;
801;SDS011;383;48.766;9.270;2024-02-16T00:07:16;8.07;;;3.95;;
801;SDS011;383;48.766;9.270;2024-02-16T00:09:43;10.48;;;4.05;;
801;SDS011;383;48.766;9.270;2024-02-16T00:12:12;6.03;;;3.85;;
801;SDS011;383;48.766;9.270;2024-02-16T00:14:40;11.00;;;4.47;;
801;SDS011;383;48.766;9.270;2024-02-16T00:17:07;8.68;;;3.55;;
801;SDS011;383;48.766;9.270;2024-02-16T00:19:35;8.18;;;4.15;;
801;SDS011;383;48.766;9.270;2024-02-16T00:22:02;13.25;;;5.38;;
801;SDS011;383;48.766;9.270;2024-02-16T00:24:29;5.65;;;3.67;;
801;SDS011;383;48.766;9.270;2024-02-16T00:26:56;4.00;;;3.05;;
801;SDS011;383;48.766;9.270;2024-02-16T00:29:25;13.18;;;4.15;;
801;SDS011;383;48.766;9.270;2024-02-16T00:31:52;6.15;;;3.95;;
801;SDS011;383;48.766;9.270;2024-02-16T00:34:19;6.57;;;3.97;;
801;SDS011;383;48.766;9.270;2024-02-16T00:36:46;5.65;;;4.07;;
801;SDS011;383;48.766;9.270;2024-02-16T00:39:13;8.10;;;3.78;;
801;SDS011;383;48.766;9.270;2024-02-16T00:41:40;5.20;;;3.70;;
801;SDS011;383;48.766;9.270;2024-02-16T00:44:07;9.23;;;3.17;;
801;SDS011;383;48.766;9.270;2024-02-16T00:46:36;7.40;;;3.80;;
801;SDS011;383;48.766;9.270;2024-02-16T00:49:03;6.05;;;3.70;;
801;SDS011;383;48.766;9.270;2024-02-16T00:51:30;9.25;;;4.60;;
801;SDS011;383;48.766;9.270;2024-02-16T00:53:57;7.68;;;3.63;;
801;SDS011;383;48.766;9.270;2024-02-16T00:56:24;5.82;;;3.88;;
801;SDS011;383;48.766;9.270;2024-02-16T00:58:51;6.53;;;4.13;;
801;SDS011;383;48.766;9.270;2024-02-16T01:01:18;7.60;;;4.88;;
801;SDS011;383;48.766;9.270;2024-02-16T01:03:48;5.53;;;3.75;;
801;SDS011;383;48.766;9.270;2024-02-16T01:06:17;14.13;;;5.63;;
801;SDS011;383;48.766;9.270;2024-02-16T01:08:44;12.13;;;4.70;;
801;SDS011;383;48.766;9.270;2024-02-16T01:11:11;6.03;;;4.25;;
801;SDS011;383;48.766;9.270;2024-02-16T01:13:38;7.20;;;4.28;;
801;SDS011;383;48.766;9.270;2024-02-16T01:16:05;8.57;;;4.50;;
801;SDS011;383;48.766;9.270;2024-02-16T01:18:33;7.30;;;3.70;;
801;SDS011;383;48.766;9.270;2024-02-16T01:21:02;5.95;;;4.47;;
801;SDS011;383;48.766;9.270;2024-02-16T01:23:29;6.68;;;4.60;;
801;SDS011;383;48.766;9.270;2024-02-16T01:25:57;5.30;;;3.45;;
801;SDS011;383;48.766;9.270;2024-02-16T01:28:24;6.03;;;3.60;;
801;SDS011;383;48.766;9.270;2024-02-16T01:30:51;5.05;;;3.30;;
801;SDS011;383;48.766;9.270;2024-02-16T01:33:21;8.50;;;4.30;;
801;SDS011;383;48.766;9.270;2024-02-16T01:35:48;6.43;;;3.78;;
801;SDS011;383;48.766;9.270;2024-02-16T01:38:16;6.10;;;4.25;;
801;SDS011;383;48.766;9.270;2024-02-16T01:40:43;6.80;;;4.18;;
801;SDS011;383;48.766;9.270;2024-02-16T01:43:10;8.82;;;4.30;;
801;SDS011;383;48.766;9.270;2024-02-16T01:45:43;7.03;;;3.80;;
801;SDS011;383;48.766;9.270;2024-02-16T01:48:13;8.77;;;4.10;;
801;SDS011;383;48.766;9.270;2024-02-16T01:50:41;15.60;;;5.07;;
801;SDS011;383;48.766;9.270;2024-02-16T01:53:09;8.90;;;4.60;;
801;SDS011;383;48.766;9.270;2024-02-16T01:55:37;8.77;;;4.97;;
801;SDS011;383;48.766;9.270;2024-02-16T01:58:05;10.73;;;4.55;;
801;SDS011;383;48.766;9.270;2024-02-16T02:00:32;14.00;;;4.90;;
801;SDS011;383;48.766;9.270;2024-02-16T02:02:59;11.93;;;5.15;;
801;SDS011;383;48.766;9.270;2024-02-16T02:05:26;11.45;;;5.30;;
801;SDS011;383;48.766;9.270;2024-02-16T02:07:53;14.88;;;6.45;;
801;SDS011;383;48.766;9.270;2024-02-16T02:10:20;9.45;;;5.03;;
801;SDS011;383;48.766;9.270;2024-02-16T02:12:49;11.57;;;6.00;;
801;SDS011;383;48.766;9.270;2024-02-16T02:15:16;12.80;;;5.07;;
801;SDS011;383;48.766;9.270;2024-02-16T02:17:44;11.63;;;5.47;;
801;SDS011;383;48.766;9.270;2024-02-16T02:20:11;8.18;;;5.45;;
801;SDS011;383;48.766;9.270;2024-02-16T02:22:39;12.70;;;6.65;;
801;SDS011;383;48.766;9.270;2024-02-16T02:25:07;18.33;;;6.40;;
801;SDS011;383;48.766;9.270;2024-02-16T02:27:35;10.32;;;6.00;;
801;SDS011;383;48.766;9.270;2024-02-16T02:30:03;8.70;;;5.70;;
801;SDS011;383;48.766;9.270;2024-02-16T02:32:30;13.25;;;6.18;;
801;SDS011;383;48.766;9.270;2024-02-16T02:34:57;11.40;;;5.68;;
801;SDS011;383;48.766;9.270;2024-02-16T02:37:24;12.30;;;5.80;;
801;SDS011;383;48.766;9.270;2024-02-16T02:39:53;18.00;;;6.13;;
801;SDS011;383;48.766;9.270;2024-02-16T02:42:20;7.95;;;5.35;;
801;SDS011;383;48.766;9.270;2024-02-16T02:44:47;13.30;;;5.63;;
801;SDS011;383;48.766;9.270;2024-02-16T02:47:16;17.02;;;6.10;;
801;SDS011;383;48.766;9.270;2024-02-16T02:49:43;11.82;;;4.88;;
801;SDS011;383;48.766;9.270;2024-02-16T02:52:10;10.90;;;4.53;;
801;SDS011;383;48.766;9.270;2024-02-16T02:54:37;12.20;;;5.35;;
801;SDS011;383;48.766;9.270;2024-02-16T02:57:06;10.23;;;5.10;;
801;SDS011;383;48.766;9.270;2024-02-16T02:59:33;7.35;;;4.43;;
801;SDS011;383;48.766;9.270;2024-02-16T03:02:00;9.98;;;4.60;;
801;SDS011;383;48.766;9.270;2024-02-16T03:04:27;11.02;;;5.38;;
801;SDS011;383;48.766;9.270;2024-02-16T03:06:54;9.90;;;5.97;;
801;SDS011;383;48.766;9.270;2024-02-16T03:09:21;10.95;;;5.38;;
801;SDS011;383;48.766;9.270;2024-02-16T03:11:48;10.50;;;4.43;;
801;SDS011;383;48.766;9.270;2024-02-16T03:14:16;12.38;;;5.10;;
801;SDS011;383;48.766;9.270;2024-02-16T03:16:43;10.88;;;4.70;;
801;SDS011;383;48.766;9.270;2024-02-16T03:19:10;9.05;;;5.25;;
801;SDS011;383;48.766;9.270;2024-02-16T03:21:38;8.18;;;5.30;;
801;SDS011;383;48.766;9.270;2024-02-16T03:24:05;13.50;;;5.28;;
801;SDS011;383;48.766;9.270;2024-02-16T03:26:32;8.73;;;4.50;;
801;SDS011;383;48.766;9.270;2024-02-16T03:28:59;9.35;;;5.40;;
801;SDS011;383;48.766;9.270;2024-02-16T03:31:27;8.98;;;5.20;;
801;SDS011;383;48.766;9.270;2024-02-16T03:33:55;11.93;;;5.15;;
801;SDS011;383;48.766;9.270;2024-02-16T03:36:22;21.02;;;5.55;;
801;SDS011;383;48.766;9.270;2024-02-16T03:38:49;12.40;;;5.03;;
801;SDS011;383;48.766;9.270;2024-02-16T03:41:18;10.63;;;6.57;;
801;SDS011;383;48.766;9.270;2024-02-16T03:43:45;11.18;;;5.45;;
801;SDS011;383;48.766;9.270;2024-02-16T03:46:12;8.30;;;5.63;;
801;SDS011;383;48.766;9.270;2024-02-16T03:48:40;15.32;;;5.50;;
801;SDS011;383;48.766;9.270;2024-02-16T03:51:07;9.50;;;4.82;;
801;SDS011;383;48.766;9.270;2024-02-16T03:53:35;13.27;;;6.15;;
801;SDS011;383;48.766;9.270;2024-02-16T03:56:02;9.80;;;5.90;;
801;SDS011;383;48.766;9.270;2024-02-16T03:58:30;14.90;;;5.72;;
801;SDS011;383;48.766;9.270;2024-02-16T04:00:57;10.55;;;6.43;;
801;SDS011;383;48.766;9.270;2024-02-16T04:03:24;9.65;;;5.95;;
801;SDS011;383;48.766;9.270;2024-02-16T04:05:53;9.80;;;5.80;;
801;SDS011;383;48.766;9.270;2024-02-16T04:08:20;10.77;;;5.57;;
801;SDS011;383;48.766;9.270;2024-02-16T04:10:47;10.25;;;5.15;;
801;SDS011;383;48.766;9.270;2024-02-16T04:13:14;12.05;;;6.43;;
801;SDS011;383;48.766;9.270;2024-02-16T04:15:41;12.50;;;5.65;;
801;SDS011;383;48.766;9.270;2024-02-16T04:18:08;13.27;;;5.40;;
801;SDS011;383;48.766;9.270;2024-02-16T04:20:35;15.02;;;5.88;;
801;SDS011;383;48.766;9.270;2024-02-16T04:23:04;10.90;;;6.15;;
801;SDS011;383;48.766;9.270;2024-02-16T04:25:31;11.30;;;6.20;;
801;SDS011;383;48.766;9.270;2024-02-16T04:27:58;10.43;;;5.53;;
801;SDS011;383;48.766;9.270;2024-02-16T04:30:25;12.43;;;5.10;;
801;SDS011;383;48.766;9.270;2024-02-16T04:32:52;9.75;;;4.75;;
801;SDS011;383;48.766;9.270;2024-02-16T04:35:19;11.27;;;6.10;;
801;SDS011;383;48.766;9.270;2024-02-16T04:37:46;6.97;;;4.97;;
801;SDS011;383;48.766;9.270;2024-02-16T04:40:15;13.32;;;6.13;;
801;SDS011;383;48.766;9.270;2024-02-16T04:42:42;8.30;;;5.35;;
801;SDS011;383;48.766;9.270;2024-02-16T04:45:10;11.90;;;5.78;;
801;SDS011;383;48.766;9.270;2024-02-16T04:47:38;12.40;;;5.53;;
801;SDS011;383;48.766;9.270;2024-02-16T04:50:05;9.95;;;5.63;;
801;SDS011;383;48.766;9.270;2024-02-16T04:52:35;10.07;;;5.28;;
801;SDS011;383;48.766;9.270;2024-02-16T04:55:03;10.82;;;5.55;;
801;SDS011;383;48.766;9.270;2024-02-16T04:57:31;8.05;;;5.10;;
801;SDS011;383;48.766;9.270;2024-02-16T04:59:59;9.43;;;5.05;;
801;SDS011;383;48.766;9.270;2024-02-16T05:02:26;10.88;;;6.00;;
801;SDS011;383;48.766;9.270;2024-02-16T05:04:53;15.25;;;5.72;;
801;SDS011;383;48.766;9.270;2024-02-16T05:07:20;8.88;;;5.18;;
801;SDS011;383;48.766;9.270;2024-02-16T05:09:47;8.15;;;5.00;;
801;SDS011;383;48.766;9.270;2024-02-16T05:12:14;13.05;;;5.10;;
801;SDS011;383;48.766;9.270;2024-02-16T05:14:48;7.82;;;5.00;;
801;SDS011;383;48.766;9.270;2024-02-16T05:17:15;9.82;;;5.20;;
801;SDS011;383;48.766;9.270;2024-02-16T05:19:42;9.18;;;4.30;;
801;SDS011;383;48.766;9.270;2024-02-16T05:22:09;10.13;;;4.88;;
801;SDS011;383;48.766;9.270;2024-02-16T05:24:36;7.78;;;3.80;;
801;SDS011;383;48.766;9.270;2024-02-16T05:27:03;10.05;;;5.43;;
801;SDS011;383;48.766;9.270;2024-02-16T05:29:30;8.63;;;5.10;;
801;SDS011;383;48.766;9.270;2024-02-16T05:31:58;7.45;;;5.13;;
801;SDS011;383;48.766;9.270;2024-02-16T05:34:25;6.75;;;4.97;;
801;SDS011;383;48.766;9.270;2024-02-16T05:36:57;8.57;;;4.80;;
801;SDS011;383;48.766;9.270;2024-02-16T05:39:24;8.15;;;4.90;;
801;SDS011;383;48.766;9.270;2024-02-16T05:41:56;10.55;;;4.68;;
801;SDS011;383;48.766;9.270;2024-02-16T05:44:23;10.05;;;4.80;;
801;SDS011;383;48.766;9.270;2024-02-16T05:46:50;8.90;;;4.85;;
801;SDS011;383;48.766;9.270;2024-02-16T05:49:18;8.18;;;4.47;;
801;SDS011;383;48.766;9.270;2024-02-16T05:51:45;10.98;;;5.05;;
801;SDS011;383;48.766;9.270;2024-02-16T05:54:42;10.43;;;4.47;;
801;SDS011;383;48.766;9.270;2024-02-16T05:57:09;6.82;;;4.50;;
801;SDS011;383;48.766;9.270;2024-02-16T05:59:37;7.68;;;4.28;;
801;SDS011;383;48.766;9.270;2024-02-16T06:02:04;7.22;;;4.05;;
801;SDS011;383;48.766;9.270;2024-02-16T06:04:33;10.30;;;4.80;;
801;SDS011;383;48.766;9.270;2024-02-16T06:07:00;8.82;;;4.50;;
801;SDS011;383;48.766;9.270;2024-02-16T06:09:27;6.60;;;4.20;;
801;SDS011;383;48.766;9.270;2024-02-16T06:12:00;6.38;;;4.32;;
801;SDS011;383;48.766;9.270;2024-02-16T06:14:28;12.02;;;5.10;;
801;SDS011;383;48.766;9.270;2024-02-16T06:16:55;6.40;;;3.92;;
801;SDS011;383;48.766;9.270;2024-02-16T06:19:22;5.57;;;4.20;;
801;SDS011;383;48.766;9.270;2024-02-16T06:21:50;6.07;;;4.22;;
801;SDS011;383;48.766;9.270;2024-02-16T06:24:19;10.35;;;5.18;;
801;SDS011;383;48.766;9.270;2024-02-16T06:26:46;8.25;;;4.18;;
801;SDS011;383;48.766;9.270;2024-02-16T06:29:13;8.98;;;4.57;;
801;SDS011;383;48.766;9.270;2024-02-16T06:31:40;6.93;;;3.75;;
801;SDS011;383;48.766;9.270;2024-02-16T06:34:07;7.10;;;4.13;;
801;SDS011;383;48.766;9.270;2024-02-16T06:36:34;7.18;;;3.85;;
801;SDS011;383;48.766;9.270;2024-02-16T06:39:02;10.82;;;7.53;;
801;SDS011;383;48.766;9.270;2024-02-16T06:41:29;7.07;;;4.22;;
801;SDS011;383;48.766;9.270;2024-02-16T06:43:56;6.30;;;4.30;;
801;SDS011;383;48.766;9.270;2024-02-16T06:46:23;9.35;;;4.45;;
801;SDS011;383;48.766;9.270;2024-02-16T06:48:52;9.48;;;4.47;;
801;SDS011;383;48.766;9.270;2024-02-16T06:51:21;10.68;;;5.65;;
801;SDS011;383;48.766;9.270;2024-02-16T06:53:48;13.40;;;5.57;;
801;SDS011;383;48.766;9.270;2024-02-16T06:56:17;8.60;;;4.80;;
801;SDS011;383;48.766;9.270;2024-02-16T06:58:44;13.07;;;4.68;;
801;SDS011;383;48.766;9.270;2024-02-16T07:01:12;7.80;;;4.88;;
801;SDS011;383;48.766;9.270;2024-02-16T07:03:39;8.50;;;5.25;;
801;SDS011;383;48.766;9.270;2024-02-16T07:06:06;8.25;;;4.70;;
801;SDS011;383;48.766;9.270;2024-02-16T07:08:35;6.18;;;4.40;;
801;SDS011;383;48.766;9.270;2024-02-16T07:11:03;8.20;;;4.78;;
801;SDS011;383;48.766;9.270;2024-02-16T07:13:31;5.25;;;4.30;;
801;SDS011;383;48.766;9.270;2024-02-16T07:15:59;9.85;;;5.05;;
801;SDS011;383;48.766;9.270;2024-02-16T07:18:29;4.80;;;3.55;;
801;SDS011;383;48.766;9.270;2024-02-16T07:20:56;8.60;;;5.28;;
801;SDS011;383;48.766;9.270;2024-02-16T07:23:24;7.25;;;4.70;;
801;SDS011;383;48.766;9.270;2024-02-16T07:25:51;7.95;;;4.47;;
801;SDS011;383;48.766;9.270;2024-02-16T07:28:20;7.78;;;4.47;;
801;SDS011;383;48.766;9.270;2024-02-16T07:30:48;8.48;;;4.32;;
801;SDS011;383;48.766;9.270;2024-02-16T07:33:16;7.13;;;4.35;;
801;SDS011;383;48.766;9.270;2024-02-16T07:35:43;11.60;;;4.82;;
801;SDS011;383;48.766;9.270;2024-02-16T07:38:10;11.05;;;5.40;;
801;SDS011;383;48.766;9.270;2024-02-16T07:40:37;9.50;;;4.45;;
801;SDS011;383;48.766;9.270;2024-02-16T07:43:04;7.25;;;3.30;;
801;SDS011;383;48.766;9.270;2024-02-16T07:45:33;7.70;;;3.78;;
801;SDS011;383;48.766;9.270;2024-02-16T07:48:01;5.97;;;3.67;;
801;SDS011;383;48.766;9.270;2024-02-16T07:50:30;14.88;;;4.20;;
801;SDS011;383;48.766;9.270;2024-02-16T07:52:57;7.82;;;4.35;;
801;SDS011;383;48.766;9.270;2024-02-16T07:55:24;9.43;;;4.28;;
801;SDS011;383;48.766;9.270;2024-02-16T07:57:51;9.20;;;4.40;;
801;SDS011;383;48.766;9.270;2024-02-16T08:00:18;5.57;;;3.67;;
801;SDS011;383;48.766;9.270;2024-02-16T08:02:45;5.72;;;4.00;;
801;SDS011;383;48.766;9.270;2024-02-16T08:05:14;8.25;;;3.95;;
801;SDS011;383;48.766;9.270;2024-02-16T08:07:44;6.93;;;4.13;;
801;SDS011;383;48.766;9.270;2024-02-16T08:10:12;7.22;;;3.25;;
801;SDS011;383;48.766;9.270;2024-02-16T08:12:39;9.32;;;4.25;;
801;SDS011;383;48.766;9.270;2024-02-16T08:15:06;8.77;;;4.13;;
801;SDS011;383;48.766;9.270;2024-02-16T08:17:33;6.95;;;4.13;;
801;SDS011;383;48.766;9.270;2024-02-16T08:20:00;10.35;;;4.15;;
801;SDS011;383;48.766;9.270;2024-02-16T08:22:29;7.10;;;4.18;;
801;SDS011;383;48.766;9.270;2024-02-16T08:24:57;5.35;;;3.03;;
801;SDS011;383;48.766;9.270;2024-02-16T08:27:24;4.95;;;3.50;;
801;SDS011;383;48.766;9.270;2024-02-16T08:29:51;5.95;;;3.22;;
801;SDS011;383;48.766;9.270;2024-02-16T08:32:18;7.40;;;3.47;;
801;SDS011;383;48.766;9.270;2024-02-16T08:34:46;4.50;;;3.20;;
801;SDS011;383;48.766;9.270;2024-02-16T08:37:15;7.70;;;3.92;;
801;SDS011;383;48.766;9.270;2024-02-16T08:39:43;5.15;;;3.05;;
801;SDS011;383;48.766;9.270;2024-02-16T08:42:10;6.87;;;3.73;;
801;SDS011;383;48.766;9.270;2024-02-16T08:44:37;4.63;;;3.20;;
801;SDS011;383;48.766;9.270;2024-02-16T08:47:05;5.80;;;3.57;;
801;SDS011;383;48.766;9.270;2024-02-16T08:49:32;5.13;;;3.70;;
801;SDS011;383;48.766;9.270;2024-02-16T08:52:00;12.60;;;3.50;;
801;SDS011;383;48.766;9.270;2024-02-16T08:54:27;9.20;;;5.30;;
801;SDS011;383;48.766;9.270;2024-02-16T08:56:55;8.20;;;4.17;;
801;SDS011;383;48.766;9.270;2024-02-16T08:59:22;4.43;;;2.83;;
801;SDS011;383;48.766;9.270;2024-02-16T09:01:50;7.40;;;3.73;;
801;SDS011;383;48.766;9.270;2024-02-16T09:04:17;4.90;;;3.27;;
801;SDS011;383;48.766;9.270;2024-02-16T09:06:44;5.20;;;2.70;;
801;SDS011;383;48.766;9.270;2024-02-16T09:09:11;4.37;;;3.10;;
801;SDS011;383;48.766;9.270;2024-02-16T09:11:40;6.17;;;3.23;;
801;SDS011;383;48.766;9.270;2024-02-16T09:14:08;4.53;;;3.27;;
801;SDS011;383;48.766;9.270;2024-02-16T09:16:35;5.13;;;3.30;;
801;SDS011;383;48.766;9.270;2024-02-16T09:19:02;5.67;;;2.67;;
801;SDS011;383;48.766;9.270;2024-02-16T09:21:29;5.40;;;3.30;;
801;SDS011;383;48.766;9.270;2024-02-16T09:23:56;9.03;;;3.50;;
801;SDS011;383;48.766;9.270;2024-02-16T09:26:26;8.93;;;3.17;;
801;SDS011;383;48.766;9.270;2024-02-16T09:28:55;5.70;;;3.73;;
801;SDS011;383;48.766;9.270;2024-02-16T09:31:23;7.23;;;3.20;;
801;SDS011;383;48.766;9.270;2024-02-16T09:33:51;5.23;;;3.30;;
801;SDS011;383;48.766;9.270;2024-02-16T09:36:18;8.83;;;4.30;;
801;SDS011;383;48.766;9.270;2024-02-16T09:38:45;4.00;;;3.00;;
801;SDS011;383;48.766;9.270;2024-02-16T09:41:12;6.33;;;3.07;;
801;SDS011;383;48.766;9.270;2024-02-16T09:43:41;6.57;;;3.40;;
801;SDS011;383;48.766;9.270;2024-02-16T09:46:08;9.00;;;3.90;;
801;SDS011;383;48.766;9.270;2024-02-16T09:48:36;3.90;;;3.03;;
801;SDS011;383;48.766;9.270;2024-02-16T09:51:08;7.67;;;3.70;;
801;SDS011;383;48.766;9.270;2024-02-16T09:53:36;6.83;;;3.20;;
801;SDS011;383;48.766;9.270;2024-02-16T09:56:04;6.33;;;3.80;;
801;SDS011;383;48.766;9.270;2024-02-16T09:58:33;6.27;;;3.63;;
801;SDS011;383;48.766;9.270;2024-02-16T10:01:02;5.80;;;3.13;;
801;SDS011;383;48.766;9.270;2024-02-16T10:03:30;17.20;;;2.93;;
801;SDS011;383;48.766;9.270;2024-02-16T10:06:06;5.93;;;2.83;;
801;SDS011;383;48.766;9.270;2024-02-16T10:08:33;4.90;;;2.97;;
801;SDS011;383;48.766;9.270;2024-02-16T10:11:01;5.53;;;2.90;;
801;SDS011;383;48.766;9.270;2024-02-16T10:13:28;5.77;;;2.87;;
801;SDS011;383;48.766;9.270;2024-02-16T10:16:03;16.60;;;2.47;;
801;SDS011;383;48.766;9.270;2024-02-16T10:18:31;6.23;;;3.60;;
801;SDS011;383;48.766;9.270;2024-02-16T10:20:58;3.00;;;2.60;;
801;SDS011;383;48.766;9.270;2024-02-16T10:23:26;4.87;;;2.77;;
801;SDS011;383;48.766;9.270;2024-02-16T10:25:53;7.10;;;2.93;;
801;SDS011;383;48.766;9.270;2024-02-16T10:28:20;4.93;;;3.20;;
801;SDS011;383;48.766;9.270;2024-02-16T10:30:53;4.63;;;1.90;;
801;SDS011;383;48.766;9.270;2024-02-16T10:33:23;6.27;;;2.80;;
801;SDS011;383;48.766;9.270;2024-02-16T10:35:54;6.23;;;2.00;;
801;SDS011;383;48.766;9.270;2024-02-16T10:38:22;4.83;;;2.93;;
801;SDS011;383;48.766;9.270;2024-02-16T10:40:51;10.33;;;4.17;;
801;SDS011;383;48.766;9.270;2024-02-16T10:43:18;8.47;;;4.60;;
801;SDS011;383;48.766;9.270;2024-02-16T10:45:47;10.40;;;5.43;;
801;SDS011;383;48.766;9.270;2024-02-16T10:48:17;10.20;;;4.40;;
801;SDS011;383;48.766;9.270;2024-02-16T10:50:44;6.03;;;2.87;;
801;SDS011;383;48.766;9.270;2024-02-16T10:53:14;8.13;;;4.30;;
801;SDS011;383;48.766;9.270;2024-02-16T10:55:43;8.40;;;3.80;;
801;SDS011;383;48.766;9.270;2024-02-16T10:58:12;6.30;;;3.73;;
801;SDS011;383;48.766;9.270;2024-02-16T11:00:47;11.10;;;3.63;;
801;SDS011;383;48.766;9.270;2024-02-16T11:03:16;12.57;;;4.90;;
801;SDS011;383;48.766;9.270;2024-02-16T11:05:44;7.70;;;4.30;;
801;SDS011;383;48.766;9.270;2024-02-16T11:08:12;9.87;;;3.70;;
801;SDS011;383;48.766;9.270;2024-02-16T11:10:39;6.80;;;3.77;;
801;SDS011;383;48.766;9.270;2024-02-16T11:13:06;11.10;;;4.00;;
801;SDS011;383;48.766;9.270;2024-02-16T11:15:35;7.63;;;3.93;;
801;SDS011;383;48.766;9.270;2024-02-16T11:18:04;8.37;;;3.30;;
801;SDS011;383;48.766;9.270;2024-02-16T11:20:36;5.63;;;3.17;;
801;SDS011;383;48.766;9.270;2024-02-16T11:23:04;9.07;;;3.60;;
801;SDS011;383;48.766;9.270;2024-02-16T11:25:32;2.90;;;2.17;;
801;SDS011;383;48.766;9.270;2024-02-16T11:28:00;13.07;;;2.80;;
801;SDS011;383;48.766;9.270;2024-02-16T11:30:28;7.60;;;2.80;;
801;SDS011;383;48.766;9.270;2024-02-16T11:32:57;5.67;;;2.50;;
801;SDS011;383;48.766;9.270;2024-02-16T11:35:24;7.30;;;2.63;;
801;SDS011;383;48.766;9.270;2024-02-16T11:37:51;5.83;;;2.50;;
801;SDS011;383;48.766;9.270;2024-02-16T11:40:18;3.40;;;2.10;;
801;SDS011;383;48.766;9.270;2024-02-16T11:42:45;2.80;;;2.17;;
801;SDS011;383;48.766;9.270;2024-02-16T11:45:12;2.70;;;2.03;;
801;SDS011;383;48.766;9.270;2024-02-16T11:47:40;4.47;;;2.27;;
801;SDS011;383;48.766;9.270;2024-02-16T11:50:09;4.63;;;1.80;;
801;SDS011;383;48.766;9.270;2024-02-16T11:52:37;3.80;;;1.60;;
801;SDS011;383;48.766;9.270;2024-02-16T11:55:07;4.03;;;2.10;;
801;SDS011;383;48.766;9.270;2024-02-16T11:57:34;4.33;;;2.47;;
801;SDS011;383;48.766;9.270;2024-02-16T12:00:02;3.80;;;2.37;;
801;SDS011;383;48.766;9.270;2024-02-16T12:02:33;4.40;;;2.40;;
801;SDS011;383;48.766;9.270;2024-02-16T12:05:01;3.83;;;2.07;;
801;SDS011;383;48.766;9.270;2024-02-16T12:07:29;3.80;;;2.03;;
801;SDS011;383;48.766;9.270;2024-02-16T12:09:58;4.17;;;2.13;;
801;SDS011;383;48.766;9.270;2024-02-16T12:12:25;3.40;;;2.03;;
801;SDS011;383;48.766;9.270;2024-02-16T12:14:52;4.33;;;2.13;;
801;SDS011;383;48.766;9.270;2024-02-16T12:17:20;4.20;;;2.33;;
801;SDS011;383;48.766;9.270;2024-02-16T12:19:47;4.20;;;2.00;;
801;SDS011;383;48.766;9.270;2024-02-16T12:22:16;2.40;;;1.60;;
801;SDS011;383;48.766;9.270;2024-02-16T12:24:45;4.83;;;2.10;;
801;SDS011;383;48.766;9.270;2024-02-16T12:27:12;6.67;;;2.20;;
801;SDS011;383;48.766;9.270;2024-02-16T12:29:39;3.97;;;2.03;;
801;SDS011;383;48.766;9.270;2024-02-16T12:32:06;4.00;;;1.90;;
801;SDS011;383;48.766;9.270;2024-02-16T12:34:35;7.10;;;3.00;;
801;SDS011;383;48.766;9.270;2024-02-16T12:37:04;4.40;;;2.40;;
801;SDS011;383;48.766;9.270;2024-02-16T12:39:32;4.57;;;2.27;;
801;SDS011;383;48.766;9.270;2024-02-16T12:42:01;5.03;;;2.50;;
801;SDS011;383;48.766;9.270;2024-02-16T12:44:28;5.23;;;1.90;;
801;SDS011;383;48.766;9.270;2024-02-16T12:46:55;4.87;;;1.90;;
801;SDS011;383;48.766;9.270;2024-02-16T12:49:22;4.97;;;2.33;;
801;SDS011;383;48.766;9.270;2024-02-16T12:51:50;2.40;;;2.10;;
801;SDS011;383;48.766;9.270;2024-02-16T12:54:18;6.67;;;2.00;;
801;SDS011;383;48.766;9.270;2024-02-16T12:56:45;4.43;;;2.40;;
801;SDS011;383;48.766;9.270;2024-02-16T12:59:14;7.70;;;2.50;;
801;SDS011;383;48.766;9.270;2024-02-16T13:01:41;4.63;;;2.60;;
801;SDS011;383;48.766;9.270;2024-02-16T13:04:08;6.10;;;2.13;;
801;SDS011;383;48.766;9.270;2024-02-16T13:06:35;5.80;;;2.63;;
801;SDS011;383;48.766;9.270;2024-02-16T13:09:03;8.30;;;2.30;;
801;SDS011;383;48.766;9.270;2024-02-16T13:11:30;6.23;;;2.03;;
801;SDS011;383;48.766;9.270;2024-02-16T13:13:58;6.50;;;2.10;;
801;SDS011;383;48.766;9.270;2024-02-16T13:16:27;6.90;;;3.07;;
801;SDS011;383;48.766;9.270;2024-02-16T13:18:54;6.63;;;3.23;;
801;SDS011;383;48.766;9.270;2024-02-16T13:21:21;8.77;;;2.83;;
801;SDS011;383;48.766;9.270;2024-02-16T13:23:48;6.10;;;2.87;;
801;SDS011;383;48.766;9.270;2024-02-16T13:26:15;8.90;;;3.03;;
801;SDS011;383;48.766;9.270;2024-02-16T13:28:42;7.90;;;2.67;;
801;SDS011;383;48.766;9.270;2024-02-16T13:31:09;8.67;;;2.70;;
801;SDS011;383;48.766;9.270;2024-02-16T13:33:37;5.17;;;2.63;;
801;SDS011;383;48.766;9.270;2024-02-16T13:36:05;5.87;;;2.57;;
801;SDS011;383;48.766;9.270;2024-02-16T13:38:32;26.50;;;12.40;;
801;SDS011;383;48.766;9.270;2024-02-16T13:40:59;15.63;;;6.00;;
801;SDS011;383;48.766;9.270;2024-02-16T13:43:26;11.23;;;3.93;;
801;SDS011;383;48.766;9.270;2024-02-16T13:45:53;2.97;;;2.40;;
801;SDS011;383;48.766;9.270;2024-02-16T13:48:23;8.00;;;3.03;;
801;SDS011;383;48.766;9.270;2024-02-16T13:50:54;4.60;;;2.93;;
801;SDS011;383;48.766;9.270;2024-02-16T13:53:21;5.10;;;2.40;;
801;SDS011;383;48.766;9.270;2024-02-16T13:55:49;5.77;;;2.97;;
801;SDS011;383;48.766;9.270;2024-02-16T13:58:16;8.07;;;3.53;;
801;SDS011;383;48.766;9.270;2024-02-16T14:00:43;4.70;;;2.70;;
801;SDS011;383;48.766;9.270;2024-02-16T14:03:10;11.10;;;4.53;;
801;SDS011;383;48.766;9.270;2024-02-16T14:05:38;5.40;;;2.30;;
801;SDS011;383;48.766;9.270;2024-02-16T14:08:07;6.00;;;2.33;;
801;SDS011;383;48.766;9.270;2024-02-16T14:10:36;6.30;;;3.00;;
801;SDS011;383;48.766;9.270;2024-02-16T14:13:03;9.43;;;3.03;;
801;SDS011;383;48.766;9.270;2024-02-16T14:15:30;9.37;;;2.93;;
801;SDS011;383;48.766;9.270;2024-02-16T14:17:57;4.40;;;2.93;;
801;SDS011;383;48.766;9.270;2024-02-16T14:20:24;9.93;;;2.60;;
801;SDS011;383;48.766;9.270;2024-02-16T14:22:51;15.63;;;4.07;;
801;SDS011;383;48.766;9.270;2024-02-16T14:25:20;9.63;;;3.50;;
801;SDS011;383;48.766;9.270;2024-02-16T14:27:47;10.70;;;4.30;;
801;SDS011;383;48.766;9.270;2024-02-16T14:30:14;11.37;;;3.90;;
801;SDS011;383;48.766;9.270;2024-02-16T14:32:41;9.50;;;4.33;;
801;SDS011;383;48.766;9.270;2024-02-16T14:35:08;14.30;;;4.20;;
801;SDS011;383;48.766;9.270;2024-02-16T14:37:35;9.17;;;4.53;;
801;SDS011;383;48.766;9.270;2024-02-16T14:40:04;12.63;;;4.67;;
801;SDS011;383;48.766;9.270;2024-02-16T14:42:36;14.77;;;5.00;;
801;SDS011;383;48.766;9.270;2024-02-16T14:45:04;24.03;;;6.60;;
801;SDS011;383;48.766;9.270;2024-02-16T14:47:34;16.40;;;6.17;;
801;SDS011;383;48.766;9.270;2024-02-16T14:50:01;21.07;;;8.43;;
801;SDS011;383;48.766;9.270;2024-02-16T14:52:28;13.50;;;6.07;;
801;SDS011;383;48.766;9.270;2024-02-16T14:54:55;9.77;;;4.40;;
801;SDS011;383;48.766;9.270;2024-02-16T14:57:22;5.53;;;3.40;;
801;SDS011;383;48.766;9.270;2024-02-16T14:59:51;6.37;;;3.23;;
801;SDS011;383;48.766;9.270;2024-02-16T15:02:21;7.63;;;2.73;;
801;SDS011;383;48.766;9.270;2024-02-16T15:04:49;7.93;;;3.20;;
801;SDS011;383;48.766;9.270;2024-02-16T15:07:17;8.60;;;3.57;;
801;SDS011;383;48.766;9.270;2024-02-16T15:09:44;13.43;;;3.50;;
801;SDS011;383;48.766;9.270;2024-02-16T15:12:11;9.13;;;4.10;;
801;SDS011;383;48.766;9.270;2024-02-16T15:14:41;13.70;;;3.43;;
801;SDS011;383;48.766;9.270;2024-02-16T15:17:09;7.30;;;4.00;;
801;SDS011;383;48.766;9.270;2024-02-16T15:19:36;8.57;;;3.70;;
801;SDS011;383;48.766;9.270;2024-02-16T15:22:03;7.90;;;3.67;;
801;SDS011;383;48.766;9.270;2024-02-16T15:24:31;5.93;;;2.90;;
801;SDS011;383;48.766;9.270;2024-02-16T15:26:58;4.10;;;2.70;;
801;SDS011;383;48.766;9.270;2024-02-16T15:29:26;7.90;;;3.70;;
801;SDS011;383;48.766;9.270;2024-02-16T15:31:53;10.77;;;3.73;;
801;SDS011;383;48.766;9.270;2024-02-16T15:34:22;9.40;;;4.83;;
801;SDS011;383;48.766;9.270;2024-02-16T15:36:49;7.50;;;3.80;;
801;SDS011;383;48.766;9.270;2024-02-16T15:39:16;12.63;;;4.80;;
801;SDS011;383;48.766;9.270;2024-02-16T15:41:43;12.03;;;4.13;;
801;SDS011;383;48.766;9.270;2024-02-16T15:44:11;12.37;;;4.07;;